Aérodrome :
LOGIN :

S'inscrire | Disclaimer

   EN    FR    IT 

 










Légende :    VFR   VFR Marginal   IFR   IFR Intensif   IFR Très Intensif
Visi : 
Plafond : 
>= 8 km
>= 3000ft
5 à 8 km
1000 à 3000 ft
1500m à 5 km
500 à 1000 ft
800 à 1500m
200 à 500 ft
< 800m
< 200 ft
Symboles :   Orages  Brouillard  Fortes neiges  Fortes précipitations  Vent > 20 kt
SIGMETs :   Divers  Orages  Givrage  Turbulence  Onde Orograph.  Cendres Volcan.







- Altitude de l'aérodrome : 526 ft
- Code IATA : LTN
- Voir les cartes d'approche


EGGW - London Luton

DERNIER METAR :
  • 211120Z AUTO 12013KT 9999 NCD 22/07 Q1012

METARs EXPIRÉS :
  • 211050Z AUTO 12015KT 9999 NCD 21/07 Q1013
  • 211020Z AUTO 13011KT 9999 NCD 20/08 Q1013
  • 210950Z AUTO 12012KT 9999 NCD 18/08 Q1014
  • 210920Z AUTO 13010KT 9999 NCD 17/08 Q1014
  • 210850Z AUTO 12011KT 9999 NCD 16/09 Q1014

TAF TAF EGGW
Valide du 21 à 12h jusqu'au 22 à 12h UTC


211106Z 2112/2212 12012KT CAVOK
TEMPO 2202/2207 7000 SHRA
PROB30
TEMPO 2202/2207 4000 +SHRA TSRA BKN040CB
TEMPO 2210/2212 6000 SHRA RA BKN025
PROB40
TEMPO 2210/2212 15015G25KT 3000 +SHRA BKN009 BKN020CB
ATIS : +44 1582 395 204
Pas de NOTAMs connus pour ce terrain.



MET'MAP, la Météo Aéronautique d'un coup d'oeil ! - Copyright ORBIFLY Décembre 2007 - Disclaimer

ORBIFLY MET'MAP TEAM :

Programmation & Développement : Alexandra Zaïnal
Conception & Développement : Baudouin d'Aumeries
Co-Programmation & Développement : Marc-Olivier Méhu
Soutien technique & logistique : Manuel Goepfert

Contact : metmap@orbifly.com




SOURCES & CREDITS :

   NOAA